createdAt,value
2018-06-05T00:01:44.321Z,13.17
2018-06-05T00:04:15.034Z,12.60
2018-06-05T00:06:45.318Z,16.67
2018-06-05T00:09:15.940Z,11.60
2018-06-05T00:11:47.083Z,13.10
2018-06-05T00:14:17.856Z,15.17
2018-06-05T00:16:48.825Z,16.57
2018-06-05T00:19:19.074Z,12.27
2018-06-05T00:21:49.608Z,12.60
2018-06-05T00:24:20.410Z,13.10
2018-06-05T00:26:51.964Z,24.13
2018-06-05T00:29:22.801Z,11.23
2018-06-05T00:31:53.537Z,13.03
2018-06-05T00:34:24.252Z,12.53
2018-06-05T00:36:54.662Z,14.37
2018-06-05T00:39:25.262Z,14.07
2018-06-05T00:41:55.958Z,12.70
2018-06-05T00:44:31.918Z,14.27
2018-06-05T00:47:02.604Z,15.43
2018-06-05T00:49:33.301Z,13.40
2018-06-05T00:52:10.216Z,18.43
2018-06-05T00:54:40.854Z,14.40
2018-06-05T00:57:11.632Z,17.90
2018-06-05T00:59:42.022Z,14.00
2018-06-05T01:02:12.898Z,16.77
2018-06-05T01:04:43.597Z,14.53
2018-06-05T01:07:14.316Z,16.33
2018-06-05T01:09:45.919Z,16.57
2018-06-05T01:12:16.213Z,14.10
2018-06-05T01:14:46.943Z,10.60
2018-06-05T01:17:17.763Z,18.47
2018-06-05T01:19:48.458Z,15.27
2018-06-05T01:22:19.139Z,15.23
2018-06-05T01:24:50.392Z,13.60
2018-06-05T01:27:20.929Z,16.27
2018-06-05T01:29:51.552Z,13.20
2018-06-05T01:32:22.376Z,15.20
2018-06-05T01:34:53.055Z,15.63
2018-06-05T01:37:23.338Z,11.43
2018-06-05T01:39:54.513Z,14.37
2018-06-05T01:42:25.123Z,13.30
2018-06-05T01:44:56.599Z,14.37
2018-06-05T01:47:27.477Z,16.27
2018-06-05T01:49:58.167Z,17.07
2018-06-05T01:52:28.905Z,13.10
2018-06-05T01:54:59.550Z,17.37
2018-06-05T01:57:30.059Z,21.63
2018-06-05T02:00:01.562Z,12.60
2018-06-05T02:02:32.064Z,14.20
2018-06-05T02:05:03.342Z,14.03
2018-06-05T02:07:34.325Z,21.90
2018-06-05T02:10:05.081Z,13.20
2018-06-05T02:12:35.695Z,15.23
2018-06-05T02:15:06.462Z,18.30
2018-06-05T02:17:36.981Z,19.70
2018-06-05T02:20:08.285Z,14.40
2018-06-05T02:22:38.852Z,16.80
2018-06-05T02:25:09.465Z,17.53
2018-06-05T02:27:39.993Z,18.27
2018-06-05T02:30:10.709Z,17.83
2018-06-05T02:32:41.383Z,15.97
2018-06-05T02:35:11.961Z,13.93
2018-06-05T02:37:42.746Z,16.70
2018-06-05T02:40:13.369Z,13.33
2018-06-05T02:42:43.652Z,13.53
2018-06-05T02:45:14.211Z,16.23
2018-06-05T02:47:44.753Z,12.77
2018-06-05T02:50:15.460Z,12.30
2018-06-05T02:52:46.240Z,15.00
2018-06-05T02:55:16.765Z,12.93
2018-06-05T02:57:47.402Z,13.73
2018-06-05T03:00:18.028Z,17.17
2018-06-05T03:02:48.644Z,16.40
2018-06-05T03:05:19.463Z,16.97
2018-06-05T03:07:50.401Z,22.03
2018-06-05T03:10:21.229Z,16.77
2018-06-05T03:12:51.859Z,15.00
2018-06-05T03:15:22.465Z,16.13
2018-06-05T03:17:53.023Z,13.60
2018-06-05T03:20:23.546Z,22.07
2018-06-05T03:22:54.155Z,19.30
2018-06-05T03:25:25.597Z,14.40
2018-06-05T03:27:56.254Z,17.90
2018-06-05T03:30:27.505Z,15.67
2018-06-05T03:32:58.736Z,18.80
2018-06-05T03:35:29.534Z,15.43
2018-06-05T03:38:00.412Z,13.93
2018-06-05T03:40:31.112Z,11.53
2018-06-05T03:43:01.659Z,15.07
2018-06-05T03:45:32.516Z,10.67
2018-06-05T03:48:03.191Z,15.13
2018-06-05T03:50:34.342Z,16.70
2018-06-05T03:53:05.280Z,14.37
2018-06-05T03:55:35.945Z,15.37
2018-06-05T03:58:06.582Z,18.43
2018-06-05T04:00:37.162Z,14.50
2018-06-05T04:03:08.101Z,14.57
2018-06-05T04:05:38.734Z,20.93
2018-06-05T04:08:09.568Z,16.47
2018-06-05T04:10:40.401Z,15.57
2018-06-05T04:13:11.097Z,17.30
2018-06-05T04:15:42.333Z,14.53
2018-06-05T04:18:13.215Z,18.87
2018-06-05T04:20:43.819Z,13.93
2018-06-05T04:23:16.071Z,18.30
2018-06-05T04:25:46.751Z,17.00
2018-06-05T04:28:17.366Z,13.47
2018-06-05T04:30:48.210Z,15.13
2018-06-05T04:33:18.745Z,14.20
2018-06-05T04:35:50.086Z,18.63
2018-06-05T04:38:20.700Z,15.13
2018-06-05T04:40:52.031Z,14.40
2018-06-05T04:43:22.792Z,17.33
2018-06-05T04:45:53.392Z,12.80
2018-06-05T04:48:23.972Z,12.70
2018-06-05T04:50:54.688Z,10.70
2018-06-05T04:53:25.428Z,13.03
2018-06-05T04:55:56.045Z,12.33
2018-06-05T04:58:26.638Z,14.63
2018-06-05T05:00:57.340Z,13.53
2018-06-05T05:03:27.747Z,14.00
2018-06-05T05:05:57.799Z,13.23
2018-06-05T05:08:28.335Z,13.30
2018-06-05T05:10:58.928Z,11.47
2018-06-05T05:13:29.566Z,17.43
2018-06-05T05:16:00.620Z,12.23
2018-06-05T05:18:31.303Z,9.83
2018-06-05T05:21:01.988Z,10.83
2018-06-05T05:23:32.333Z,11.37
2018-06-05T05:26:02.905Z,10.70
2018-06-05T05:28:33.588Z,12.60
2018-06-05T05:31:04.367Z,9.40
2018-06-05T05:33:34.980Z,9.57
2018-06-05T05:36:05.669Z,8.67
2018-06-05T05:38:36.154Z,12.03
2018-06-05T05:41:13.302Z,7.83
2018-06-05T05:43:44.023Z,11.87
2018-06-05T05:46:14.567Z,6.40
2018-06-05T05:48:45.286Z,6.73
2018-06-05T05:51:15.916Z,9.50
2018-06-05T05:53:46.648Z,9.60
2018-06-05T05:56:17.249Z,11.70
2018-06-05T05:58:47.767Z,11.63
2018-06-05T06:01:18.456Z,6.60
2018-06-05T06:03:49.219Z,11.30
2018-06-05T06:06:19.769Z,17.33
2018-06-05T06:08:50.294Z,6.70
2018-06-05T06:11:20.920Z,9.60
2018-06-05T06:13:58.288Z,12.60
2018-06-05T06:16:28.862Z,8.40
2018-06-05T06:18:59.454Z,7.60
2018-06-05T06:21:29.914Z,9.73
2018-06-05T06:24:00.569Z,10.23
2018-06-05T06:26:31.255Z,7.00
2018-06-05T06:29:01.824Z,11.47
2018-06-05T06:31:32.700Z,6.77
2018-06-05T06:34:03.493Z,7.57
2018-06-05T06:36:34.034Z,7.47
2018-06-05T06:39:06.905Z,9.27
2018-06-05T06:41:38.270Z,8.73
2018-06-05T06:44:08.905Z,8.50
2018-06-05T06:46:39.428Z,10.23
2018-06-05T06:49:10.166Z,10.70
2018-06-05T06:51:40.834Z,7.83
2018-06-05T06:54:11.965Z,12.63
2018-06-05T06:56:42.558Z,9.07
2018-06-05T06:59:13.293Z,10.03
2018-06-05T07:01:44.045Z,9.17
2018-06-05T07:04:14.569Z,10.93
2018-06-05T07:06:45.028Z,9.10
2018-06-05T07:09:15.746Z,9.23
2018-06-05T07:11:46.244Z,10.80
2018-06-05T07:14:16.804Z,9.73
2018-06-05T07:16:48.041Z,10.03
2018-06-05T07:19:18.811Z,8.80
2018-06-05T07:21:49.448Z,7.60
2018-06-05T07:24:20.260Z,9.43
2018-06-05T07:26:51.210Z,8.33
2018-06-05T07:29:21.816Z,8.97
2018-06-05T07:31:52.480Z,8.83
2018-06-05T07:34:23.181Z,10.17
2018-06-05T07:36:53.955Z,9.87
2018-06-05T07:39:24.567Z,9.03
2018-06-05T07:41:55.908Z,7.87
2018-06-05T07:44:26.626Z,8.00
2018-06-05T07:46:57.261Z,8.10
2018-06-05T07:49:28.091Z,11.73
2018-06-05T07:51:58.731Z,7.80
2018-06-05T07:54:29.352Z,11.30
2018-06-05T07:56:59.919Z,9.93
2018-06-05T07:59:30.621Z,8.13
2018-06-05T08:02:01.153Z,7.97
2018-06-05T08:04:31.452Z,7.87
2018-06-05T08:07:02.402Z,7.43
2018-06-05T08:09:32.751Z,7.30
2018-06-05T08:12:03.261Z,11.13
2018-06-05T08:14:34.634Z,11.50
2018-06-05T08:17:05.355Z,11.67
2018-06-05T08:19:35.949Z,7.90
2018-06-05T08:22:06.620Z,8.07
2018-06-05T08:24:37.382Z,7.73
2018-06-05T08:27:08.087Z,6.70
2018-06-05T08:29:38.809Z,8.20
2018-06-05T08:32:16.105Z,8.83
2018-06-05T08:34:46.748Z,5.97
2018-06-05T08:37:17.375Z,6.40
2018-06-05T08:39:48.199Z,7.43
2018-06-05T08:42:19.114Z,10.30
2018-06-05T08:44:53.161Z,7.10
2018-06-05T08:47:23.985Z,7.53
2018-06-05T08:49:55.401Z,8.70
2018-06-05T08:52:26.177Z,9.30
2018-06-05T08:54:59.787Z,7.20
2018-06-05T08:57:30.492Z,6.70
2018-06-05T09:00:01.671Z,6.87
2018-06-05T09:02:32.447Z,9.60
2018-06-05T09:05:03.154Z,9.33
2018-06-05T09:07:34.096Z,7.77
2018-06-05T09:10:04.825Z,6.67
2018-06-05T09:12:35.720Z,9.83
2018-06-05T09:15:06.447Z,7.73
2018-06-05T09:17:37.134Z,7.70
2018-06-05T09:20:07.931Z,6.70
2018-06-05T09:22:38.752Z,6.53
2018-06-05T09:25:09.490Z,7.57
2018-06-05T09:27:40.369Z,13.10
2018-06-05T09:30:11.489Z,10.20
2018-06-05T09:32:41.825Z,7.30
2018-06-05T09:35:12.358Z,8.17
2018-06-05T09:37:42.891Z,7.57
2018-06-05T09:40:13.619Z,7.30
2018-06-05T09:42:44.324Z,8.17
2018-06-05T09:45:15.665Z,6.70
2018-06-05T09:47:46.344Z,7.87
2018-06-05T09:50:17.533Z,6.77
2018-06-05T09:52:48.277Z,6.27
2018-06-05T09:55:18.905Z,10.10
2018-06-05T09:57:49.569Z,5.93
2018-06-05T10:00:24.405Z,5.40
2018-06-05T10:02:55.024Z,5.03
2018-06-05T10:05:25.783Z,6.43
2018-06-05T10:07:56.410Z,8.33
2018-06-05T10:10:27.095Z,5.10
2018-06-05T10:12:57.288Z,5.17
2018-06-05T10:15:27.896Z,4.57
2018-06-05T10:17:58.589Z,4.90
2018-06-05T10:20:29.241Z,4.93
2018-06-05T10:22:59.978Z,6.30
2018-06-05T10:25:30.485Z,5.30
2018-06-05T10:28:01.128Z,4.57
2018-06-05T10:30:32.325Z,4.13
2018-06-05T10:33:03.009Z,5.13
2018-06-05T10:35:33.267Z,4.20
2018-06-05T10:38:03.686Z,4.23
2018-06-05T10:40:34.284Z,6.30
2018-06-05T10:43:04.855Z,4.07
2018-06-05T10:45:35.538Z,5.73
2018-06-05T10:48:06.015Z,3.73
2018-06-05T10:50:40.428Z,4.37
2018-06-05T10:53:10.946Z,4.47
2018-06-05T10:55:41.588Z,4.70
2018-06-05T10:58:12.376Z,3.93
2018-06-05T11:00:42.904Z,11.80
2018-06-05T11:03:13.553Z,4.10
2018-06-05T11:05:43.880Z,4.70
2018-06-05T11:08:14.700Z,3.97
2018-06-05T11:10:45.356Z,4.87
2018-06-05T11:13:16.181Z,4.97
2018-06-05T11:15:47.685Z,5.13
2018-06-05T11:18:18.272Z,4.80
2018-06-05T11:20:48.944Z,7.47
2018-06-05T11:23:19.563Z,4.97
2018-06-05T11:25:50.213Z,4.80
2018-06-05T11:28:20.797Z,10.30
2018-06-05T11:30:51.304Z,8.20
2018-06-05T11:33:21.901Z,6.43
2018-06-05T11:35:52.623Z,8.70
2018-06-05T11:38:23.200Z,8.70
2018-06-05T11:40:53.980Z,5.30
2018-06-05T11:43:24.834Z,4.97
2018-06-05T11:45:55.497Z,4.83
2018-06-05T11:48:26.182Z,7.43
2018-06-05T11:50:56.785Z,8.70
2018-06-05T11:53:28.375Z,7.50
2018-06-05T11:55:59.662Z,7.00
2018-06-05T11:58:30.286Z,5.93
2018-06-05T12:01:00.816Z,6.20
2018-06-05T12:03:35.344Z,5.27
2018-06-05T12:06:06.647Z,4.67
2018-06-05T12:08:41.382Z,5.33
2018-06-05T12:11:12.050Z,6.93
2018-06-05T12:13:53.791Z,6.40
2018-06-05T12:16:24.482Z,5.20
2018-06-05T12:18:55.154Z,4.47
2018-06-05T12:21:25.900Z,4.93
2018-06-05T12:23:56.528Z,4.63
2018-06-05T12:26:28.344Z,4.83
2018-06-05T12:28:59.793Z,7.67
2018-06-05T12:31:30.471Z,8.93
2018-06-05T12:34:12.016Z,13.70
2018-06-05T12:36:42.808Z,48.60
2018-06-05T12:39:13.369Z,5.47
2018-06-05T12:41:44.053Z,7.30
2018-06-05T12:44:17.922Z,9.43
2018-06-05T12:46:48.506Z,4.77
2018-06-05T12:49:19.260Z,3.97
2018-06-05T12:51:50.272Z,3.90
2018-06-05T12:54:20.995Z,3.80
2018-06-05T12:56:51.660Z,3.63
2018-06-05T12:59:23.115Z,3.80
2018-06-05T13:01:53.924Z,4.17
2018-06-05T13:04:25.283Z,3.80
2018-06-05T13:06:55.985Z,4.60
2018-06-05T13:09:26.631Z,4.00
2018-06-05T13:11:57.332Z,5.07
2018-06-05T13:14:27.910Z,3.63
2018-06-05T13:16:59.155Z,5.93
2018-06-05T13:19:29.653Z,4.57
2018-06-05T13:22:00.293Z,6.17
2018-06-05T13:24:30.995Z,4.40
2018-06-05T13:27:05.906Z,6.03
2018-06-05T13:29:36.609Z,8.17
2018-06-05T13:32:07.337Z,3.87
2018-06-05T13:34:37.975Z,4.87
2018-06-05T13:37:08.585Z,4.47
2018-06-05T13:39:39.204Z,5.37
2018-06-05T13:42:09.940Z,4.13
2018-06-05T13:44:40.526Z,4.07
2018-06-05T13:47:11.022Z,4.30
2018-06-05T13:49:41.627Z,5.80
2018-06-05T13:52:12.254Z,5.27
2018-06-05T13:54:42.999Z,4.50
2018-06-05T13:57:13.682Z,4.10
2018-06-05T13:59:44.332Z,5.10
2018-06-05T14:02:16.028Z,5.60
2018-06-05T14:04:46.771Z,4.33
2018-06-05T14:07:17.421Z,5.30
2018-06-05T14:09:48.138Z,4.80
2018-06-05T14:12:18.745Z,8.70
2018-06-05T14:14:49.405Z,5.87
2018-06-05T14:17:20.036Z,4.40
2018-06-05T14:19:50.788Z,4.90
2018-06-05T14:22:21.687Z,3.83
2018-06-05T14:24:52.337Z,6.23
2018-06-05T14:27:23.010Z,6.10
2018-06-05T14:29:53.679Z,3.40
2018-06-05T14:32:24.884Z,4.73
2018-06-05T14:34:55.436Z,4.37
2018-06-05T14:37:26.283Z,4.63
2018-06-05T14:39:56.727Z,4.90
2018-06-05T14:42:27.021Z,7.20
2018-06-05T14:44:57.571Z,7.50
2018-06-05T14:47:28.231Z,4.87
2018-06-05T14:49:58.872Z,4.43
2018-06-05T14:52:29.566Z,4.30
2018-06-05T14:55:00.341Z,4.80
2018-06-05T14:57:31.055Z,4.80
2018-06-05T15:00:01.593Z,5.27
2018-06-05T15:02:32.298Z,5.20
2018-06-05T15:05:03.029Z,5.10
2018-06-05T15:07:33.579Z,5.73
2018-06-05T15:10:04.433Z,5.53
2018-06-05T15:12:35.109Z,10.23
2018-06-05T15:15:06.296Z,4.57
2018-06-05T15:17:36.639Z,6.77
2018-06-05T15:20:07.829Z,5.60
2018-06-05T15:22:38.580Z,5.10
2018-06-05T15:25:09.261Z,5.40
2018-06-05T15:27:39.885Z,7.83
2018-06-05T15:30:10.608Z,9.10
2018-06-05T15:32:41.229Z,6.27
2018-06-05T15:35:11.992Z,4.90
2018-06-05T15:37:42.498Z,5.77
2018-06-05T15:40:13.311Z,5.10
2018-06-05T15:42:44.068Z,5.80
2018-06-05T15:45:14.822Z,5.40
2018-06-05T15:47:45.697Z,7.13
2018-06-05T15:50:17.276Z,7.30
2018-06-05T15:52:48.045Z,6.70
2018-06-05T15:55:18.964Z,4.83
2018-06-05T15:57:49.718Z,8.37
2018-06-05T16:00:20.596Z,5.17
2018-06-05T16:02:51.470Z,11.50
2018-06-05T16:05:22.100Z,6.40
2018-06-05T16:07:52.935Z,5.90
2018-06-05T16:10:23.553Z,6.53
2018-06-05T16:12:54.295Z,4.83
2018-06-05T16:15:24.963Z,4.43
2018-06-05T16:17:55.569Z,5.20
2018-06-05T16:20:26.206Z,4.23
2018-06-05T16:22:56.957Z,4.27
2018-06-05T16:25:27.626Z,7.27
2018-06-05T16:27:58.501Z,5.40
2018-06-05T16:30:29.800Z,4.23
2018-06-05T16:33:00.599Z,5.20
2018-06-05T16:35:31.814Z,6.33
2018-06-05T16:38:02.571Z,5.17
2018-06-05T16:40:33.225Z,6.03
2018-06-05T16:43:04.060Z,5.97
2018-06-05T16:45:34.753Z,4.87
2018-06-05T16:48:05.479Z,6.53
2018-06-05T16:50:36.149Z,7.67
2018-06-05T16:53:07.174Z,5.63
2018-06-05T16:55:37.815Z,5.97
2018-06-05T16:58:08.976Z,4.43
2018-06-05T17:00:39.695Z,4.30
2018-06-05T17:03:10.522Z,4.57
2018-06-05T17:05:41.640Z,4.77
2018-06-05T17:08:12.565Z,4.07
2018-06-05T17:10:43.221Z,9.07
2018-06-05T17:13:13.879Z,4.20
2018-06-05T17:15:44.749Z,9.67
2018-06-05T17:18:15.441Z,7.13
2018-06-05T17:20:46.070Z,4.40
2018-06-05T17:23:16.599Z,4.43
2018-06-05T17:25:47.300Z,5.03
2018-06-05T17:28:17.840Z,3.83
2018-06-05T17:30:48.689Z,4.13
2018-06-05T17:33:19.055Z,4.57
2018-06-05T17:35:49.743Z,4.80
2018-06-05T17:38:20.312Z,4.67
2018-06-05T17:40:50.933Z,4.33
2018-06-05T17:43:21.543Z,5.07
2018-06-05T17:45:52.289Z,4.23
2018-06-05T17:48:22.914Z,5.08
2018-06-05T17:50:53.900Z,4.30
2018-06-05T17:53:24.638Z,2.87
2018-06-05T17:55:55.337Z,4.03
2018-06-05T17:58:26.126Z,3.97
2018-06-05T18:00:56.795Z,10.83
2018-06-05T18:03:27.917Z,3.90
2018-06-05T18:05:58.233Z,2.87
2018-06-05T18:08:28.713Z,3.93
2018-06-05T18:10:59.423Z,5.00
2018-06-05T18:13:30.164Z,5.17
2018-06-05T18:16:00.759Z,4.40
2018-06-05T18:18:31.870Z,5.27
2018-06-05T18:21:02.559Z,4.50
2018-06-05T18:23:33.182Z,5.43
2018-06-05T18:26:03.425Z,6.40
2018-06-05T18:28:33.986Z,5.20
2018-06-05T18:31:04.892Z,4.67
2018-06-05T18:33:36.179Z,6.13
2018-06-05T18:36:07.206Z,5.53
2018-06-05T18:38:38.068Z,5.53
2018-06-05T18:41:08.844Z,5.03
2018-06-05T18:43:39.569Z,4.40
2018-06-05T18:46:11.263Z,11.70
2018-06-05T18:48:42.683Z,5.43
2018-06-05T18:51:13.563Z,3.87
2018-06-05T18:53:44.481Z,4.37
2018-06-05T18:56:15.293Z,10.43
2018-06-05T18:58:46.767Z,5.80
2018-06-05T19:01:21.572Z,4.53
2018-06-05T19:03:52.685Z,4.47
2018-06-05T19:06:23.237Z,5.30
2018-06-05T19:08:53.571Z,4.80
2018-06-05T19:11:24.268Z,5.13
2018-06-05T19:13:55.337Z,4.73
2018-06-05T19:16:29.646Z,6.97
2018-06-05T19:19:01.108Z,4.70
2018-06-05T19:21:31.945Z,5.03
2018-06-05T19:24:02.321Z,4.43
2018-06-05T19:26:33.106Z,6.07
2018-06-05T19:29:03.735Z,5.47
2018-06-05T19:31:33.791Z,4.00
2018-06-05T19:34:04.386Z,4.47
2018-06-05T19:36:34.825Z,4.63
2018-06-05T19:39:07.481Z,10.43
2018-06-05T19:41:38.130Z,7.70
2018-06-05T19:44:08.902Z,9.70
2018-06-05T19:46:44.002Z,6.20
2018-06-05T19:49:14.525Z,10.83
2018-06-05T19:51:45.075Z,4.20
2018-06-05T19:54:16.350Z,8.03
2018-06-05T19:56:46.959Z,8.80
2018-06-05T19:59:18.107Z,7.07
2018-06-05T20:01:48.911Z,18.80
2018-06-05T20:04:19.216Z,6.10
2018-06-05T20:06:49.886Z,6.10
2018-06-05T20:09:20.620Z,6.43
2018-06-05T20:11:51.251Z,8.00
2018-06-05T20:14:21.829Z,7.23
2018-06-05T20:16:52.224Z,8.60
2018-06-05T20:19:22.905Z,9.70
2018-06-05T20:21:53.762Z,9.03
2018-06-05T20:24:24.574Z,7.27
2018-06-05T20:26:55.135Z,11.70
2018-06-05T20:29:25.874Z,11.50
2018-06-05T20:31:56.598Z,8.77
2018-06-05T20:34:28.221Z,8.50
2018-06-05T20:36:59.176Z,8.37
2018-06-05T20:39:29.992Z,14.80
2018-06-05T20:42:00.618Z,10.03
2018-06-05T20:44:32.116Z,10.97
2018-06-05T20:47:02.875Z,8.40
2018-06-05T20:49:33.642Z,14.30
2018-06-05T20:52:04.322Z,10.70
2018-06-05T20:54:34.770Z,9.57
2018-06-05T20:57:05.142Z,9.30
2018-06-05T20:59:35.713Z,9.30
2018-06-05T21:02:06.458Z,16.00
2018-06-05T21:04:37.052Z,12.80
2018-06-05T21:07:07.588Z,11.07
2018-06-05T21:09:38.503Z,10.40
2018-06-05T21:12:09.202Z,11.13
2018-06-05T21:14:44.241Z,10.10
2018-06-05T21:17:15.545Z,11.23
2018-06-05T21:19:46.410Z,10.73
2018-06-05T21:22:17.233Z,12.90
2018-06-05T21:24:48.157Z,15.20
2018-06-05T21:27:19.171Z,15.47
2018-06-05T21:29:50.089Z,10.30
2018-06-05T21:32:20.800Z,10.23
2018-06-05T21:34:51.497Z,17.63
2018-06-05T21:37:22.385Z,14.03
2018-06-05T21:39:53.143Z,12.20
2018-06-05T21:42:23.763Z,12.07
2018-06-05T21:44:54.415Z,11.90
2018-06-05T21:47:25.784Z,13.03
2018-06-05T21:49:56.536Z,12.03
2018-06-05T21:52:27.161Z,15.93
2018-06-05T21:54:57.862Z,25.93
2018-06-05T21:57:28.652Z,19.60
2018-06-05T21:59:59.865Z,12.67
2018-06-05T22:02:30.889Z,8.83
2018-06-05T22:05:01.568Z,19.63
2018-06-05T22:07:32.855Z,15.83
2018-06-05T22:10:03.620Z,18.50
2018-06-05T22:12:34.382Z,16.27
2018-06-05T22:15:05.052Z,15.90
2018-06-05T22:17:35.836Z,17.30
2018-06-05T22:20:06.503Z,14.37
2018-06-05T22:22:37.898Z,15.63
2018-06-05T22:25:08.761Z,15.67
2018-06-05T22:27:40.131Z,15.80
2018-06-05T22:30:11.150Z,20.17
2018-06-05T22:32:41.825Z,18.93
2018-06-05T22:35:12.470Z,20.00
2018-06-05T22:37:42.785Z,15.03
2018-06-05T22:40:13.280Z,18.10
2018-06-05T22:42:44.071Z,16.70
2018-06-05T22:45:14.764Z,15.77
2018-06-05T22:47:45.581Z,15.87
2018-06-05T22:50:16.181Z,16.33
2018-06-05T22:52:46.813Z,17.97
2018-06-05T22:55:17.558Z,16.67
2018-06-05T22:57:48.321Z,15.50
2018-06-05T23:00:35.657Z,19.43
2018-06-05T23:03:06.142Z,17.33
2018-06-05T23:05:36.730Z,17.60
2018-06-05T23:08:07.395Z,17.10
2018-06-05T23:10:38.663Z,15.60
2018-06-05T23:13:09.540Z,14.47
2018-06-05T23:15:40.236Z,17.83
2018-06-05T23:18:10.731Z,14.80
2018-06-05T23:20:41.574Z,18.37
2018-06-05T23:23:12.331Z,17.90
2018-06-05T23:25:43.456Z,24.87
2018-06-05T23:28:14.197Z,15.37
2018-06-05T23:30:44.917Z,17.17
2018-06-05T23:33:15.562Z,22.73
2018-06-05T23:35:46.385Z,27.87
2018-06-05T23:38:17.168Z,17.47
2018-06-05T23:40:47.717Z,15.40
2018-06-05T23:43:18.325Z,13.20
2018-06-05T23:45:48.968Z,20.07
2018-06-05T23:48:19.769Z,13.70
2018-06-05T23:50:50.302Z,12.90
2018-06-05T23:53:20.979Z,15.20
2018-06-05T23:55:51.645Z,15.23
2018-06-05T23:58:22.273Z,16.77
